createdAt,value
2023-05-08T00:01:03.224Z,13.10
2023-05-08T00:04:12.028Z,12.44
2023-05-08T00:07:19.048Z,13.39
2023-05-08T00:10:24.994Z,14.17
2023-05-08T00:13:32.427Z,19.11
2023-05-08T00:16:38.265Z,22.55
2023-05-08T00:19:47.624Z,21.36
2023-05-08T00:22:53.643Z,19.49
2023-05-08T00:26:01.070Z,15.97
2023-05-08T00:29:09.245Z,13.38
2023-05-08T00:32:16.212Z,12.78
2023-05-08T00:35:25.199Z,12.80
2023-05-08T00:38:35.113Z,12.17
2023-05-08T00:41:41.591Z,11.84
2023-05-08T00:44:48.404Z,10.14
2023-05-08T00:47:55.028Z,9.08
2023-05-08T00:51:09.417Z,9.55
2023-05-08T00:54:17.053Z,9.31
2023-05-08T00:57:26.348Z,8.95
2023-05-08T01:00:34.191Z,9.13
2023-05-08T01:03:42.106Z,9.25
2023-05-08T01:06:50.932Z,9.88
2023-05-08T01:09:57.626Z,9.81
2023-05-08T01:13:22.035Z,10.33
2023-05-08T01:16:45.723Z,11.60
2023-05-08T01:20:15.996Z,11.64
2023-05-08T01:24:25.257Z,12.12
2023-05-08T01:28:16.932Z,9.37
2023-05-08T01:31:36.573Z,9.02
2023-05-08T01:34:58.140Z,8.65
2023-05-08T01:38:15.830Z,8.65
2023-05-08T01:41:31.420Z,8.89
2023-05-08T01:44:46.380Z,8.74
2023-05-08T01:48:07.228Z,8.67
2023-05-08T01:51:24.746Z,8.13
2023-05-08T01:54:42.528Z,8.68
2023-05-08T01:57:57.139Z,8.29
2023-05-08T02:01:06.774Z,8.63
2023-05-08T02:04:17.639Z,8.47
2023-05-08T02:07:28.392Z,8.65
2023-05-08T02:10:36.875Z,8.77
2023-05-08T02:13:45.945Z,9.33
2023-05-08T02:16:57.975Z,8.54
2023-05-08T02:20:15.162Z,8.62
2023-05-08T02:23:29.541Z,8.34
2023-05-08T02:26:38.960Z,8.18
2023-05-08T02:29:46.393Z,8.63
2023-05-08T02:32:58.285Z,9.34
2023-05-08T02:36:09.077Z,8.31
2023-05-08T02:39:22.555Z,7.95
2023-05-08T02:42:30.468Z,7.64
2023-05-08T02:45:46.878Z,10.19
2023-05-08T02:49:03.617Z,11.57
2023-05-08T02:52:20.473Z,8.60
2023-05-08T02:55:43.041Z,7.29
2023-05-08T02:59:03.286Z,7.42
2023-05-08T03:02:18.608Z,7.76
2023-05-08T03:05:36.663Z,7.58
2023-05-08T03:08:47.968Z,7.70
2023-05-08T03:12:12.896Z,8.26
2023-05-08T03:15:29.504Z,9.39
2023-05-08T03:18:45.821Z,9.39
2023-05-08T03:21:57.938Z,9.63
2023-05-08T03:25:10.866Z,9.52
2023-05-08T03:28:24.684Z,9.35
2023-05-08T03:31:36.474Z,8.39
2023-05-08T03:34:44.851Z,8.27
2023-05-08T03:37:51.807Z,8.74
2023-05-08T03:40:58.969Z,9.34
2023-05-08T03:44:19.428Z,9.34
2023-05-08T03:47:28.214Z,8.53
2023-05-08T03:50:40.910Z,8.70
2023-05-08T03:53:49.840Z,8.26
2023-05-08T03:56:57.889Z,8.66
2023-05-08T04:00:25.400Z,8.32
2023-05-08T04:03:56.894Z,8.03
2023-05-08T04:07:18.484Z,7.76
2023-05-08T04:10:39.415Z,7.84
2023-05-08T04:13:59.549Z,7.61
2023-05-08T04:17:17.568Z,7.24
2023-05-08T04:20:33.632Z,7.41
2023-05-08T04:23:45.118Z,7.28
2023-05-08T04:26:53.527Z,7.72
2023-05-08T04:30:01.669Z,7.51
2023-05-08T04:33:13.963Z,7.57
2023-05-08T04:36:20.486Z,7.59
2023-05-08T04:39:27.535Z,8.33
2023-05-08T04:42:36.919Z,8.01
2023-05-08T04:45:44.479Z,7.75
2023-05-08T04:48:53.332Z,8.03
2023-05-08T04:52:00.203Z,7.94
2023-05-08T04:55:06.398Z,7.81
2023-05-08T04:58:16.627Z,8.33
2023-05-08T05:01:22.978Z,8.25
2023-05-08T05:04:32.696Z,8.36
2023-05-08T05:07:38.827Z,8.09
2023-05-08T05:10:46.401Z,7.70
2023-05-08T05:13:52.587Z,7.35
2023-05-08T05:16:59.728Z,7.34
2023-05-08T05:20:10.693Z,7.58
2023-05-08T05:23:17.604Z,7.67
2023-05-08T05:26:24.563Z,7.28
2023-05-08T05:29:31.551Z,7.29
2023-05-08T05:32:38.294Z,7.14
2023-05-08T05:35:49.006Z,6.98
2023-05-08T05:38:54.995Z,6.46
2023-05-08T05:42:01.865Z,5.87
2023-05-08T05:45:09.630Z,6.25
2023-05-08T05:48:19.419Z,6.97
2023-05-08T05:51:28.055Z,6.91
2023-05-08T05:54:35.130Z,7.02
2023-05-08T05:57:41.734Z,6.85
2023-05-08T06:00:48.958Z,6.69
2023-05-08T06:03:55.639Z,6.91
2023-05-08T06:07:05.247Z,7.17
2023-05-08T06:10:12.660Z,7.25
2023-05-08T06:13:22.084Z,7.09
2023-05-08T06:16:32.673Z,7.23
2023-05-08T06:19:40.327Z,7.68
2023-05-08T06:22:49.134Z,7.61
2023-05-08T06:25:56.342Z,7.57
2023-05-08T06:29:02.473Z,7.50
2023-05-08T06:32:10.260Z,6.87
2023-05-08T06:35:18.841Z,7.05
2023-05-08T06:38:28.149Z,6.12
2023-05-08T06:41:34.031Z,5.35
2023-05-08T06:44:43.241Z,5.24
2023-05-08T06:47:49.307Z,5.20
2023-05-08T06:50:56.052Z,5.32
2023-05-08T06:54:18.140Z,6.09
2023-05-08T06:57:38.049Z,6.90
2023-05-08T07:00:45.559Z,7.45
2023-05-08T07:03:52.373Z,8.19
2023-05-08T07:07:00.803Z,7.36
2023-05-08T07:10:11.606Z,6.79
2023-05-08T07:13:20.389Z,5.61
2023-05-08T07:16:27.325Z,6.06
2023-05-08T07:19:33.355Z,5.93
2023-05-08T07:22:40.269Z,6.27
2023-05-08T07:25:48.909Z,6.27
2023-05-08T07:28:56.812Z,6.28
2023-05-08T07:32:02.874Z,6.06
2023-05-08T07:35:13.378Z,6.04
2023-05-08T07:38:19.471Z,6.25
2023-05-08T07:41:29.199Z,6.27
2023-05-08T07:44:43.682Z,6.49
2023-05-08T07:48:09.216Z,6.41
2023-05-08T07:51:15.798Z,6.17
2023-05-08T07:54:22.554Z,5.87
2023-05-08T07:57:31.075Z,6.25
2023-05-08T08:00:38.366Z,6.74
2023-05-08T08:03:44.361Z,6.47
2023-05-08T08:06:51.120Z,6.45
2023-05-08T08:09:57.379Z,6.30
2023-05-08T08:13:07.167Z,6.57
2023-05-08T08:16:13.133Z,6.25
2023-05-08T08:19:30.132Z,5.80
2023-05-08T08:22:37.119Z,6.63
2023-05-08T08:25:46.351Z,6.35
2023-05-08T08:28:54.950Z,6.48
2023-05-08T08:32:03.555Z,6.44
2023-05-08T08:35:10.704Z,6.55
2023-05-08T08:38:17.768Z,6.51
2023-05-08T08:41:24.315Z,6.21
2023-05-08T08:44:33.827Z,6.05
2023-05-08T08:47:41.766Z,5.93
2023-05-08T08:50:56.459Z,5.80
2023-05-08T08:54:12.680Z,6.29
2023-05-08T08:57:20.960Z,6.39
2023-05-08T09:00:40.352Z,6.73
2023-05-08T09:03:49.201Z,6.48
2023-05-08T09:06:59.520Z,7.08
2023-05-08T09:10:15.688Z,7.34
2023-05-08T09:13:24.352Z,7.22
2023-05-08T09:16:34.187Z,7.35
2023-05-08T09:19:40.875Z,7.55
2023-05-08T09:22:57.424Z,7.22
2023-05-08T09:26:03.314Z,6.85
2023-05-08T09:29:22.503Z,7.14
2023-05-08T09:32:32.278Z,6.63
2023-05-08T09:35:42.487Z,7.01
2023-05-08T09:38:51.765Z,6.33
2023-05-08T09:42:03.323Z,6.59
2023-05-08T09:45:12.070Z,6.53
2023-05-08T09:48:21.779Z,6.24
2023-05-08T09:51:30.743Z,6.45
2023-05-08T09:54:38.111Z,6.14
2023-05-08T09:57:57.234Z,6.23
2023-05-08T10:01:04.466Z,6.29
2023-05-08T10:04:13.018Z,5.89
2023-05-08T10:07:29.905Z,5.66
2023-05-08T10:10:37.324Z,5.65
2023-05-08T10:13:47.380Z,5.34
2023-05-08T10:16:57.032Z,5.12
2023-05-08T10:20:12.693Z,5.25
2023-05-08T10:23:20.943Z,6.27
2023-05-08T10:26:35.032Z,5.57
2023-05-08T10:29:52.195Z,5.13
2023-05-08T10:33:09.318Z,6.65
2023-05-08T10:36:19.556Z,5.49
2023-05-08T10:39:36.854Z,5.23
2023-05-08T10:42:44.656Z,5.16
2023-05-08T10:45:52.239Z,5.36
2023-05-08T10:49:19.913Z,5.21
2023-05-08T10:52:42.425Z,5.14
2023-05-08T10:55:53.709Z,5.27
2023-05-08T10:59:02.751Z,4.74
2023-05-08T11:02:10.173Z,4.57
2023-05-08T11:05:26.090Z,5.41
2023-05-08T11:08:35.370Z,5.18
2023-05-08T11:11:52.223Z,5.32
2023-05-08T11:15:10.082Z,5.35
2023-05-08T11:18:25.072Z,5.38
2023-05-08T11:21:33.168Z,4.95
2023-05-08T11:25:01.349Z,5.28
2023-05-08T11:28:22.999Z,5.28
2023-05-08T11:31:56.414Z,5.36
2023-05-08T11:35:02.492Z,5.54
2023-05-08T11:38:19.675Z,5.40
2023-05-08T11:41:28.193Z,5.46
2023-05-08T11:44:35.788Z,5.35
2023-05-08T11:47:44.519Z,5.78
2023-05-08T11:50:52.295Z,5.42
2023-05-08T11:53:59.984Z,5.27
2023-05-08T11:57:09.549Z,5.55
2023-05-08T12:00:17.557Z,5.61
2023-05-08T12:03:27.485Z,5.02
2023-05-08T12:06:34.983Z,5.56
2023-05-08T12:09:42.228Z,5.63
2023-05-08T12:12:50.790Z,5.43
2023-05-08T12:16:01.314Z,5.58
2023-05-08T12:19:08.672Z,5.73
2023-05-08T12:22:16.648Z,5.25
2023-05-08T12:25:23.783Z,5.49
2023-05-08T12:28:34.685Z,5.25
2023-05-08T12:31:46.647Z,4.95
2023-05-08T12:34:55.001Z,4.75
2023-05-08T12:38:05.628Z,4.97
2023-05-08T12:41:12.833Z,5.14
2023-05-08T12:44:28.706Z,4.61
2023-05-08T12:47:35.646Z,4.84
2023-05-08T12:50:44.084Z,4.72
2023-05-08T12:53:50.878Z,4.75
2023-05-08T12:56:59.342Z,4.88
2023-05-08T13:00:14.309Z,6.61
2023-05-08T13:03:27.701Z,5.49
2023-05-08T13:06:35.131Z,4.88
2023-05-08T13:09:41.112Z,4.58
2023-05-08T13:12:48.689Z,4.72
2023-05-08T13:15:59.315Z,4.82
2023-05-08T13:19:06.080Z,4.87
2023-05-08T13:22:12.012Z,4.51
2023-05-08T13:25:19.082Z,4.54
2023-05-08T13:28:25.480Z,4.79
2023-05-08T13:31:35.448Z,6.34
2023-05-08T13:34:47.534Z,6.26
2023-05-08T13:37:59.065Z,4.48
2023-05-08T13:41:05.200Z,4.78
2023-05-08T13:44:12.014Z,4.80
2023-05-08T13:47:23.504Z,5.42
2023-05-08T13:50:30.787Z,5.55
2023-05-08T13:53:39.601Z,5.69
2023-05-08T13:56:46.941Z,5.15
2023-05-08T13:59:53.229Z,5.90
2023-05-08T14:03:04.658Z,5.58
2023-05-08T14:06:11.109Z,4.91
2023-05-08T14:09:20.994Z,5.21
2023-05-08T14:12:26.963Z,5.58
2023-05-08T14:15:37.300Z,5.52
2023-05-08T14:18:49.092Z,5.35
2023-05-08T14:21:56.489Z,5.16
2023-05-08T14:25:09.300Z,4.39
2023-05-08T14:28:17.270Z,4.01
2023-05-08T14:31:23.286Z,4.31
2023-05-08T14:34:33.025Z,3.91
2023-05-08T14:37:39.024Z,4.03
2023-05-08T14:40:45.873Z,4.42
2023-05-08T14:43:52.126Z,4.28
2023-05-08T14:46:59.022Z,4.49
2023-05-08T14:50:08.368Z,6.17
2023-05-08T14:53:15.303Z,7.28
2023-05-08T14:56:24.732Z,7.34
2023-05-08T14:59:31.815Z,5.62
2023-05-08T15:02:38.270Z,4.93
2023-05-08T15:05:47.894Z,4.83
2023-05-08T15:08:54.247Z,4.79
2023-05-08T15:12:03.400Z,5.05
2023-05-08T15:15:11.357Z,4.80
2023-05-08T15:18:18.218Z,4.17
2023-05-08T15:21:31.504Z,4.36
2023-05-08T15:24:38.336Z,4.56
2023-05-08T15:27:44.625Z,4.62
2023-05-08T15:30:52.058Z,4.66
2023-05-08T15:33:58.049Z,4.47
2023-05-08T15:37:07.694Z,4.66
2023-05-08T15:40:15.511Z,6.02
2023-05-08T15:43:22.687Z,5.42
2023-05-08T15:46:28.824Z,5.06
2023-05-08T15:49:35.768Z,6.50
2023-05-08T15:52:44.530Z,8.06
2023-05-08T15:55:52.785Z,10.41
2023-05-08T15:58:58.904Z,5.74
2023-05-08T16:02:06.608Z,5.40
2023-05-08T16:05:13.837Z,4.89
2023-05-08T16:08:23.644Z,4.98
2023-05-08T16:11:36.152Z,5.07
2023-05-08T16:14:44.144Z,5.34
2023-05-08T16:17:50.617Z,4.92
2023-05-08T16:20:57.647Z,5.18
2023-05-08T16:24:06.680Z,4.99
2023-05-08T16:27:13.433Z,4.39
2023-05-08T16:30:30.135Z,4.23
2023-05-08T16:33:37.366Z,4.40
2023-05-08T16:36:43.596Z,4.49
2023-05-08T16:39:53.732Z,4.51
2023-05-08T16:42:59.901Z,5.28
2023-05-08T16:46:09.876Z,5.25
2023-05-08T16:49:21.566Z,5.82
2023-05-08T16:52:29.648Z,6.09
2023-05-08T16:55:38.263Z,5.82
2023-05-08T16:58:46.385Z,5.49
2023-05-08T17:01:54.046Z,5.24
2023-05-08T17:05:02.910Z,5.37
2023-05-08T17:08:09.804Z,5.36
2023-05-08T17:11:19.257Z,5.17
2023-05-08T17:14:25.310Z,5.43
2023-05-08T17:17:32.298Z,5.41
2023-05-08T17:20:41.150Z,5.20
2023-05-08T17:23:48.732Z,5.22
2023-05-08T17:26:59.402Z,5.24
2023-05-08T17:30:12.688Z,5.12
2023-05-08T17:33:25.843Z,5.59
2023-05-08T17:36:32.743Z,5.98
2023-05-08T17:39:45.326Z,6.98
2023-05-08T17:42:54.810Z,6.42
2023-05-08T17:46:01.278Z,6.11
2023-05-08T17:49:08.181Z,6.52
2023-05-08T17:52:17.672Z,6.58
2023-05-08T17:55:32.822Z,6.17
2023-05-08T17:58:42.359Z,5.86
2023-05-08T18:01:49.409Z,6.19
2023-05-08T18:04:55.675Z,6.42
2023-05-08T18:08:02.489Z,7.78
2023-05-08T18:11:08.873Z,9.43
2023-05-08T18:14:18.977Z,10.82
2023-05-08T18:17:25.389Z,10.27
2023-05-08T18:20:32.566Z,12.88
2023-05-08T18:23:42.008Z,14.95
2023-05-08T18:26:52.378Z,28.72
2023-05-08T18:30:01.383Z,16.87
2023-05-08T18:33:08.317Z,12.82
2023-05-08T18:36:14.834Z,11.80
2023-05-08T18:39:21.554Z,14.56
2023-05-08T18:42:32.562Z,18.96
2023-05-08T18:45:44.883Z,19.09
2023-05-08T18:48:50.942Z,13.85
2023-05-08T18:51:57.723Z,11.51
2023-05-08T18:55:04.190Z,10.10
2023-05-08T18:58:10.993Z,9.69
2023-05-08T19:01:21.465Z,11.98
2023-05-08T19:04:28.342Z,15.77
2023-05-08T19:07:36.858Z,14.27
2023-05-08T19:10:44.142Z,16.07
2023-05-08T19:13:52.782Z,16.10
2023-05-08T19:17:05.118Z,15.10
2023-05-08T19:20:13.291Z,15.28
2023-05-08T19:23:21.120Z,14.64
2023-05-08T19:26:27.299Z,14.82
2023-05-08T19:29:35.476Z,14.93
2023-05-08T19:32:44.283Z,13.32
2023-05-08T19:35:51.424Z,13.81
2023-05-08T19:38:57.381Z,13.52
2023-05-08T19:42:04.223Z,14.47
2023-05-08T19:45:12.246Z,14.97
2023-05-08T19:48:27.983Z,16.31
2023-05-08T19:51:36.384Z,17.65
2023-05-08T19:54:48.718Z,18.82
2023-05-08T19:57:56.881Z,19.06
2023-05-08T20:01:16.422Z,23.21
2023-05-08T20:04:54.592Z,26.84
2023-05-08T20:08:04.611Z,25.54
2023-05-08T20:11:12.155Z,24.51
2023-05-08T20:14:21.448Z,26.70
2023-05-08T20:17:27.688Z,28.20
2023-05-08T20:20:37.788Z,25.94
2023-05-08T20:23:44.182Z,21.44
2023-05-08T20:26:54.541Z,20.39
2023-05-08T20:30:00.452Z,24.75
2023-05-08T20:33:07.637Z,20.53
2023-05-08T20:36:16.496Z,16.85
2023-05-08T20:39:23.320Z,15.97
2023-05-08T20:42:29.342Z,16.31
2023-05-08T20:45:37.143Z,17.59
2023-05-08T20:48:43.332Z,16.84
2023-05-08T20:51:53.049Z,16.60
2023-05-08T20:55:01.116Z,16.07
2023-05-08T20:58:09.347Z,14.54
2023-05-08T21:01:25.260Z,14.27
2023-05-08T21:04:32.051Z,14.40
2023-05-08T21:07:42.361Z,14.45
2023-05-08T21:10:49.333Z,14.40
2023-05-08T21:13:55.551Z,15.06
2023-05-08T21:17:02.483Z,14.32
2023-05-08T21:20:12.168Z,13.91
2023-05-08T21:23:23.064Z,13.83
2023-05-08T21:26:28.946Z,14.23
2023-05-08T21:29:35.731Z,15.74
2023-05-08T21:32:41.750Z,15.68
2023-05-08T21:35:48.760Z,14.71
2023-05-08T21:38:57.512Z,13.18
2023-05-08T21:42:04.465Z,14.62
2023-05-08T21:45:12.372Z,15.34
2023-05-08T21:48:19.628Z,16.11
2023-05-08T21:51:25.569Z,15.85
2023-05-08T21:54:34.965Z,15.31
2023-05-08T21:57:40.866Z,16.01
2023-05-08T22:00:48.784Z,17.05
2023-05-08T22:04:03.473Z,16.79
2023-05-08T22:07:17.529Z,16.63
2023-05-08T22:10:31.645Z,16.83
2023-05-08T22:13:38.451Z,18.19
2023-05-08T22:16:44.688Z,17.38
2023-05-08T22:19:51.458Z,16.74
2023-05-08T22:22:57.637Z,16.97
2023-05-08T22:26:07.442Z,16.53
2023-05-08T22:29:13.468Z,17.09
2023-05-08T22:32:20.671Z,17.51
2023-05-08T22:35:29.958Z,23.15
2023-05-08T22:38:36.821Z,29.01
2023-05-08T22:41:45.567Z,26.23
2023-05-08T22:44:52.493Z,13.94
2023-05-08T22:47:59.279Z,14.31
2023-05-08T22:51:20.439Z,13.90
2023-05-08T22:54:26.401Z,14.23
2023-05-08T22:57:35.935Z,14.35
2023-05-08T23:00:41.982Z,14.86
2023-05-08T23:03:49.017Z,15.20
2023-05-08T23:06:55.064Z,15.14
2023-05-08T23:10:01.890Z,15.15
2023-05-08T23:13:10.629Z,14.87
2023-05-08T23:16:17.400Z,14.62
2023-05-08T23:19:23.522Z,14.29
2023-05-08T23:22:31.740Z,14.23
2023-05-08T23:25:37.616Z,14.39
2023-05-08T23:28:47.041Z,14.52
2023-05-08T23:31:53.051Z,15.00
2023-05-08T23:34:59.756Z,14.88
2023-05-08T23:38:05.708Z,15.26
2023-05-08T23:41:13.349Z,14.51
2023-05-08T23:44:22.218Z,15.11
2023-05-08T23:47:29.047Z,15.45
2023-05-08T23:50:35.071Z,15.40
2023-05-08T23:53:42.555Z,15.51
2023-05-08T23:56:48.464Z,15.04
